Plaucheville, LA (71362)

6:16 AM CDT on July 31, 2014 (GMT -0500)
APO - Cottonport (KLACOTTO2) Elev 66 ft | 30.98 °N, 92.06 °W | Change Station

Current weather conditions updated 1 second ago

Clear
Clear
71.4 °F
Feels Like 72 °F
N
0.0
Wind Variable Wind from NNW
Gusts 1.7 mph

Today is forecast to be nearly the same temperature as yesterday.

Today
High -- | Low -- °F
--% Chance of Precip.
Yesterday
High -- | Low -- °F
Precip. -- in
6:24 AM 8:03 PM
Waxing Crescent, 17% visible
Pressure 30.01 in
Visibility 10.0 miles
Clouds Clear
Heat Index 72 °F
Dew Point 64 °F
Humidity 78%
Rainfall 0.00 in
Snow Depth Not available.
UV 0 out of 12
Pollen 3.20 out of 12
Air Quality Not available.
Flu Activity Not available.
METAR KOPL 311055Z AUTO 00000KT 10SM CLR 21/20 A3001 RMK AO2 T02090200

More Conditions Fewer Conditions

Pressure 30.01 in
Visibility 10.0 miles
Clouds Clear
Heat Index 72 °F
Dew Point 64 °F
Humidity 78%
Rainfall 0.00 in
Snow Depth Not available.
UV 0 out of 12
Pollen 3.20 out of 12
Air Quality Not available.
Flu Activity Not available.
METAR KOPL 311055Z AUTO 00000KT 10SM CLR 21/20 A3001 RMK AO2 T02090200

More Conditions Fewer Conditions

Nowcast | as of 5:53 am CDT on July 31, 2014

Scattered very light showers will continue through the early morning hours over Acadiana. Most of the activity will be between Opelousas and Lafayette where only a few hundredths of rain may occur.

×

10-Day Weather Forecast

Almanac

Astronomy

Jul. 31, 2014 Rise Set
Actual Time 6:24 AM CDT 8:03 PM CDT
Civil Twilight 5:58 AM CDT 8:29 PM CDT
Nautical Twilight 5:26 AM CDT 9:01 PM CDT
Astronomical Twilight 4:53 AM CDT 9:34 PM CDT
Moon 10:31 AM CDT 10:39 PM CDT
Length of Visible Light 14h 31m
Length of Day
13h 38m
Tomorrow will be 1m 23s shorter.
Waxing Crescent, 17% of the Moon is Illuminated
Today
Waxing Crescent
Aug 3
First Quarter
Aug 10
Full
Aug 17
Last Quarter
Aug 25
New

Today's Extremes

State Highs State Lows

Community

WunderPhotos

Upload Photos

1,739,290 photos uploaded!

WunderBlogs® & News

Nearby

Snow Depth

Station Depth Elevation
No new snow has been reported.

Earthquake Activity

City Distance Mag. Time & Date
No recent earthquake activity has been reported nearby.
Minimum magnitude displayed is 2.5.

Coastal Water Temperatures

Place Temperature
No Stations Reporting

Nearby Weather Stations

Station Location Temp. Heat Index Dew Point Humidity Wind Precip. Elev Updated Type
APO - Cottonport, Cottonport, LA 71.4 °F 72 °F 64 °F 78% NNW  at  0.0 mph 0.00 in / hr 66 ft 6:16 AM CDT Rapid Fire
Hessmer, Hessmer, LA 69.8 °F - 67 °F 91% East  at  0.0 mph - / hr 82 ft 6:09 AM CDT Normal
MesoWest CHNYVL , Cheneyville, LA 69 °F - - - North  at  - 0.00 in / hr 68 ft 2:30 AM CDT MADIS
Evangeline Sub., Opelousas, LA 69.6 °F - 68 °F 95% East  at  1.1 mph - / hr 82 ft 6:15 AM CDT Normal

Show More Stations Show Fewer Stations